sensor_id;sensor_type;location;lat;lon;timestamp;pressure;altitude;pressure_sealevel;temperature;humidity
60852;BME280;48553;50.766;2.900;2023-05-03T00:01:43;102065.97;;;11.83;59.31
60852;BME280;48553;50.766;2.900;2023-05-03T00:04:43;102063.06;;;11.79;59.40
60852;BME280;48553;50.766;2.900;2023-05-03T00:07:45;102066.72;;;11.75;59.55
60852;BME280;48553;50.766;2.900;2023-05-03T00:10:46;102067.84;;;11.74;59.62
60852;BME280;48553;50.766;2.900;2023-05-03T00:13:46;102070.22;;;11.66;59.68
60852;BME280;48553;50.766;2.900;2023-05-03T00:16:47;102064.72;;;11.66;59.59
60852;BME280;48553;50.766;2.900;2023-05-03T00:19:47;102063.91;;;11.66;59.72
60852;BME280;48553;50.766;2.900;2023-05-03T00:22:47;102068.38;;;11.62;59.73
60852;BME280;48553;50.766;2.900;2023-05-03T00:25:55;102065.47;;;11.58;59.86
60852;BME280;48553;50.766;2.900;2023-05-03T00:28:57;102067.72;;;11.56;59.84
60852;BME280;48553;50.766;2.900;2023-05-03T00:31:57;102060.06;;;11.53;59.86
60852;BME280;48553;50.766;2.900;2023-05-03T00:34:59;102062.31;;;11.51;60.07
60852;BME280;48553;50.766;2.900;2023-05-03T00:37:59;102064.38;;;11.45;60.15
60852;BME280;48553;50.766;2.900;2023-05-03T00:41:00;102061.94;;;11.44;60.06
60852;BME280;48553;50.766;2.900;2023-05-03T00:44:02;102049.94;;;11.40;60.19
60852;BME280;48553;50.766;2.900;2023-05-03T00:47:02;102054.63;;;11.39;60.30
60852;BME280;48553;50.766;2.900;2023-05-03T00:50:05;102048.13;;;11.35;60.34
60852;BME280;48553;50.766;2.900;2023-05-03T00:53:06;102040.00;;;11.30;60.35
60852;BME280;48553;50.766;2.900;2023-05-03T00:56:06;102046.63;;;11.29;60.37
60852;BME280;48553;50.766;2.900;2023-05-03T00:59:08;102043.69;;;11.25;60.38
60852;BME280;48553;50.766;2.900;2023-05-03T01:02:10;102040.44;;;11.23;60.43
60852;BME280;48553;50.766;2.900;2023-05-03T01:05:10;102040.84;;;11.17;60.49
60852;BME280;48553;50.766;2.900;2023-05-03T01:08:22;102040.84;;;11.17;60.52
60852;BME280;48553;50.766;2.900;2023-05-03T01:18:00;102048.19;;;11.07;60.67
60852;BME280;48553;50.766;2.900;2023-05-03T01:21:04;102049.63;;;11.05;60.83
60852;BME280;48553;50.766;2.900;2023-05-03T01:24:21;102047.50;;;11.02;60.94
60852;BME280;48553;50.766;2.900;2023-05-03T01:27:23;102042.94;;;10.97;60.97
60852;BME280;48553;50.766;2.900;2023-05-03T01:30:25;102033.88;;;10.97;60.96
60852;BME280;48553;50.766;2.900;2023-05-03T01:33:34;102019.34;;;10.96;60.82
60852;BME280;48553;50.766;2.900;2023-05-03T01:36:36;102015.91;;;10.91;60.98
60852;BME280;48553;50.766;2.900;2023-05-03T01:39:47;101996.50;;;10.87;60.88
60852;BME280;48553;50.766;2.900;2023-05-03T01:42:50;101993.25;;;10.85;60.94
60852;BME280;48553;50.766;2.900;2023-05-03T01:45:51;101987.59;;;10.81;61.07
60852;BME280;48553;50.766;2.900;2023-05-03T01:48:51;101977.41;;;10.82;61.34
60852;BME280;48553;50.766;2.900;2023-05-03T01:51:52;101984.63;;;10.78;61.17
60852;BME280;48553;50.766;2.900;2023-05-03T01:54:52;101986.88;;;10.76;61.16
60852;BME280;48553;50.766;2.900;2023-05-03T01:57:53;101985.03;;;10.71;61.19
60852;BME280;48553;50.766;2.900;2023-05-03T02:00:53;102002.28;;;10.72;61.22
60852;BME280;48553;50.766;2.900;2023-05-03T02:03:54;102012.56;;;10.66;61.28
60852;BME280;48553;50.766;2.900;2023-05-03T02:06:54;102021.91;;;10.65;61.34
60852;BME280;48553;50.766;2.900;2023-05-03T02:09:55;102022.41;;;10.67;61.30
60852;BME280;48553;50.766;2.900;2023-05-03T02:12:55;102032.97;;;10.60;61.33
60852;BME280;48553;50.766;2.900;2023-05-03T02:15:56;102029.22;;;10.56;61.32
60852;BME280;48553;50.766;2.900;2023-05-03T02:18:56;102039.69;;;10.54;61.58
60852;BME280;48553;50.766;2.900;2023-05-03T02:21:58;102037.75;;;10.54;61.19
60852;BME280;48553;50.766;2.900;2023-05-03T02:24:58;102044.16;;;10.50;61.29
60852;BME280;48553;50.766;2.900;2023-05-03T02:27:59;102037.66;;;10.45;61.51
60852;BME280;48553;50.766;2.900;2023-05-03T02:31:00;102035.19;;;10.44;61.24
60852;BME280;48553;50.766;2.900;2023-05-03T02:34:00;102028.91;;;10.43;61.60
60852;BME280;48553;50.766;2.900;2023-05-03T02:37:01;102029.00;;;10.38;61.60
60852;BME280;48553;50.766;2.900;2023-05-03T02:40:01;102032.84;;;10.37;61.49
60852;BME280;48553;50.766;2.900;2023-05-03T02:43:02;102036.22;;;10.34;61.53
60852;BME280;48553;50.766;2.900;2023-05-03T02:46:03;102043.41;;;10.30;61.70
60852;BME280;48553;50.766;2.900;2023-05-03T02:49:03;102046.44;;;10.29;61.71
60852;BME280;48553;50.766;2.900;2023-05-03T02:52:04;102035.75;;;10.27;61.51
60852;BME280;48553;50.766;2.900;2023-05-03T02:55:05;102049.47;;;10.27;61.68
60852;BME280;48553;50.766;2.900;2023-05-03T02:58:05;102046.50;;;10.23;61.83
60852;BME280;48553;50.766;2.900;2023-05-03T03:01:06;102050.38;;;10.22;61.66
60852;BME280;48553;50.766;2.900;2023-05-03T03:04:08;102054.53;;;10.20;61.74
60852;BME280;48553;50.766;2.900;2023-05-03T03:07:08;102060.59;;;10.17;61.87
60852;BME280;48553;50.766;2.900;2023-05-03T03:10:09;102053.78;;;10.14;61.64
60852;BME280;48553;50.766;2.900;2023-05-03T03:13:10;102046.47;;;10.10;62.03
60852;BME280;48553;50.766;2.900;2023-05-03T03:16:11;102044.03;;;10.08;61.92
60852;BME280;48553;50.766;2.900;2023-05-03T03:19:12;102047.09;;;10.07;61.92
60852;BME280;48553;50.766;2.900;2023-05-03T03:22:13;102043.81;;;10.04;62.03
60852;BME280;48553;50.766;2.900;2023-05-03T03:25:13;102044.22;;;9.98;62.04
60852;BME280;48553;50.766;2.900;2023-05-03T03:28:13;102035.19;;;9.97;62.33
60852;BME280;48553;50.766;2.900;2023-05-03T03:31:14;102032.44;;;9.97;62.09
60852;BME280;48553;50.766;2.900;2023-05-03T03:34:15;102028.38;;;9.95;62.06
60852;BME280;48553;50.766;2.900;2023-05-03T03:37:15;102028.44;;;9.90;62.11
60852;BME280;48553;50.766;2.900;2023-05-03T03:40:16;102029.28;;;9.90;62.16
60852;BME280;48553;50.766;2.900;2023-05-03T03:43:16;102019.22;;;9.86;62.12
60852;BME280;48553;50.766;2.900;2023-05-03T03:46:16;102015.16;;;9.83;62.14
60852;BME280;48553;50.766;2.900;2023-05-03T03:49:17;102004.19;;;9.83;62.08
60852;BME280;48553;50.766;2.900;2023-05-03T03:52:17;102011.41;;;9.79;62.15
60852;BME280;48553;50.766;2.900;2023-05-03T03:55:18;102015.53;;;9.76;62.38
60852;BME280;48553;50.766;2.900;2023-05-03T03:58:18;102017.78;;;9.74;62.16
60852;BME280;48553;50.766;2.900;2023-05-03T04:01:19;102014.72;;;9.76;62.26
60852;BME280;48553;50.766;2.900;2023-05-03T04:04:19;102016.41;;;9.72;62.53
60852;BME280;48553;50.766;2.900;2023-05-03T04:07:20;102013.78;;;9.67;62.41
60852;BME280;48553;50.766;2.900;2023-05-03T04:10:21;102021.97;;;9.67;62.44
60852;BME280;48553;50.766;2.900;2023-05-03T04:13:21;102023.91;;;9.66;62.42
60852;BME280;48553;50.766;2.900;2023-05-03T04:16:21;102019.06;;;9.63;62.48
60852;BME280;48553;50.766;2.900;2023-05-03T04:19:23;102022.69;;;9.58;62.65
60852;BME280;48553;50.766;2.900;2023-05-03T04:22:25;102033.31;;;9.60;62.56
60852;BME280;48553;50.766;2.900;2023-05-03T04:25:26;102024.38;;;9.54;62.60
60852;BME280;48553;50.766;2.900;2023-05-03T04:28:27;102026.00;;;9.55;62.50
60852;BME280;48553;50.766;2.900;2023-05-03T04:31:27;102030.66;;;9.55;62.59
60852;BME280;48553;50.766;2.900;2023-05-03T04:34:28;102034.81;;;9.52;62.68
60852;BME280;48553;50.766;2.900;2023-05-03T04:37:30;102041.38;;;9.51;62.78
60852;BME280;48553;50.766;2.900;2023-05-03T04:40:30;102040.38;;;9.47;62.55
60852;BME280;48553;50.766;2.900;2023-05-03T04:43:31;102036.28;;;9.45;62.76
60852;BME280;48553;50.766;2.900;2023-05-03T04:46:32;102030.00;;;9.44;62.90
60852;BME280;48553;50.766;2.900;2023-05-03T04:49:33;102034.38;;;9.45;63.02
60852;BME280;48553;50.766;2.900;2023-05-03T04:52:33;102028.16;;;9.39;63.11
60852;BME280;48553;50.766;2.900;2023-05-03T04:55:34;102017.81;;;9.36;62.94
60852;BME280;48553;50.766;2.900;2023-05-03T04:58:35;102016.09;;;9.40;63.26
60852;BME280;48553;50.766;2.900;2023-05-03T05:01:36;102019.13;;;9.39;63.19
60852;BME280;48553;50.766;2.900;2023-05-03T05:04:36;102028.16;;;9.39;63.12
60852;BME280;48553;50.766;2.900;2023-05-03T05:07:37;102023.78;;;9.38;63.42
60852;BME280;48553;50.766;2.900;2023-05-03T05:10:40;102029.56;;;9.37;63.44
60852;BME280;48553;50.766;2.900;2023-05-03T05:13:40;102036.94;;;9.36;63.62
60852;BME280;48553;50.766;2.900;2023-05-03T05:16:41;102033.69;;;9.34;63.83
60852;BME280;48553;50.766;2.900;2023-05-03T05:19:42;102039.44;;;9.33;63.90
60852;BME280;48553;50.766;2.900;2023-05-03T05:22:42;102038.66;;;9.32;64.12
60852;BME280;48553;50.766;2.900;2023-05-03T05:25:42;102034.81;;;9.33;64.39
60852;BME280;48553;50.766;2.900;2023-05-03T05:28:44;102038.38;;;9.34;64.40
60852;BME280;48553;50.766;2.900;2023-05-03T05:31:44;102023.03;;;9.33;64.61
60852;BME280;48553;50.766;2.900;2023-05-03T05:34:45;102021.94;;;9.34;64.79
60852;BME280;48553;50.766;2.900;2023-05-03T05:37:52;102016.47;;;9.34;64.92
60852;BME280;48553;50.766;2.900;2023-05-03T05:40:52;102012.53;;;9.40;65.00
60852;BME280;48553;50.766;2.900;2023-05-03T05:43:53;102009.31;;;9.38;64.69
60852;BME280;48553;50.766;2.900;2023-05-03T05:46:53;102009.78;;;9.40;64.67
60852;BME280;48553;50.766;2.900;2023-05-03T05:49:54;102019.66;;;9.41;64.89
60852;BME280;48553;50.766;2.900;2023-05-03T05:52:54;102014.38;;;9.45;65.05
60852;BME280;48553;50.766;2.900;2023-05-03T05:55:55;102009.22;;;9.43;65.36
60852;BME280;48553;50.766;2.900;2023-05-03T05:58:55;102002.63;;;9.44;65.21
60852;BME280;48553;50.766;2.900;2023-05-03T06:01:56;102014.84;;;9.52;65.33
60852;BME280;48553;50.766;2.900;2023-05-03T06:04:59;102024.66;;;9.53;65.42
60852;BME280;48553;50.766;2.900;2023-05-03T06:07:59;102025.41;;;9.58;65.28
60852;BME280;48553;50.766;2.900;2023-05-03T06:11:00;102027.25;;;9.63;65.52
60852;BME280;48553;50.766;2.900;2023-05-03T06:14:00;102029.63;;;9.70;65.44
60852;BME280;48553;50.766;2.900;2023-05-03T06:17:03;102026.28;;;9.73;65.64
60852;BME280;48553;50.766;2.900;2023-05-03T06:20:03;102032.28;;;9.75;65.89
60852;BME280;48553;50.766;2.900;2023-05-03T06:23:04;102034.63;;;9.81;65.85
60852;BME280;48553;50.766;2.900;2023-05-03T06:26:05;102022.47;;;9.88;65.89
60852;BME280;48553;50.766;2.900;2023-05-03T06:29:06;102033.63;;;9.91;65.64
60852;BME280;48553;50.766;2.900;2023-05-03T06:32:06;102024.53;;;9.96;65.84
60852;BME280;48553;50.766;2.900;2023-05-03T06:35:07;102020.59;;;10.02;65.91
60852;BME280;48553;50.766;2.900;2023-05-03T06:38:09;102030.03;;;10.10;65.49
60852;BME280;48553;50.766;2.900;2023-05-03T06:41:11;102031.28;;;10.17;65.56
60852;BME280;48553;50.766;2.900;2023-05-03T06:44:11;102024.59;;;10.23;65.18
60852;BME280;48553;50.766;2.900;2023-05-03T06:47:11;102015.44;;;10.28;65.25
60852;BME280;48553;50.766;2.900;2023-05-03T06:50:12;102025.75;;;10.36;65.14
60852;BME280;48553;50.766;2.900;2023-05-03T06:53:13;102022.28;;;10.44;64.79
60852;BME280;48553;50.766;2.900;2023-05-03T06:56:13;102025.47;;;10.52;64.89
60852;BME280;48553;50.766;2.900;2023-05-03T06:59:14;102019.88;;;10.57;64.94
60852;BME280;48553;50.766;2.900;2023-05-03T07:02:16;102029.66;;;10.63;64.79
60852;BME280;48553;50.766;2.900;2023-05-03T07:05:17;102022.31;;;10.72;64.51
60852;BME280;48553;50.766;2.900;2023-05-03T07:08:17;102017.53;;;10.78;64.83
60852;BME280;48553;50.766;2.900;2023-05-03T07:11:20;102022.00;;;10.87;65.00
60852;BME280;48553;50.766;2.900;2023-05-03T07:14:23;102015.78;;;10.96;64.49
60852;BME280;48553;50.766;2.900;2023-05-03T07:17:26;102021.06;;;11.06;65.01
60852;BME280;48553;50.766;2.900;2023-05-03T07:20:26;102021.97;;;11.15;65.26
60852;BME280;48553;50.766;2.900;2023-05-03T07:23:27;102027.22;;;11.25;65.14
60852;BME280;48553;50.766;2.900;2023-05-03T07:26:27;102025.06;;;11.36;65.31
60852;BME280;48553;50.766;2.900;2023-05-03T07:29:28;102025.94;;;11.45;64.81
60852;BME280;48553;50.766;2.900;2023-05-03T07:32:28;102016.34;;;11.57;65.24
60852;BME280;48553;50.766;2.900;2023-05-03T07:35:29;102007.84;;;11.67;65.26
60852;BME280;48553;50.766;2.900;2023-05-03T07:38:30;102015.03;;;11.77;65.44
60852;BME280;48553;50.766;2.900;2023-05-03T07:41:31;102013.69;;;11.88;65.20
60852;BME280;48553;50.766;2.900;2023-05-03T07:44:31;102011.47;;;11.99;65.08
60852;BME280;48553;50.766;2.900;2023-05-03T07:47:32;102010.44;;;12.08;64.76
60852;BME280;48553;50.766;2.900;2023-05-03T07:50:36;102007.09;;;12.20;64.73
60852;BME280;48553;50.766;2.900;2023-05-03T07:53:37;102002.44;;;12.29;64.51
60852;BME280;48553;50.766;2.900;2023-05-03T07:56:39;102009.44;;;12.44;64.45
60852;BME280;48553;50.766;2.900;2023-05-03T07:59:39;102006.91;;;12.57;64.16
60852;BME280;48553;50.766;2.900;2023-05-03T08:02:40;102014.88;;;12.67;64.24
60852;BME280;48553;50.766;2.900;2023-05-03T08:05:40;102009.56;;;12.79;63.95
60852;BME280;48553;50.766;2.900;2023-05-03T08:08:41;102008.00;;;12.95;63.76
60852;BME280;48553;50.766;2.900;2023-05-03T08:11:42;102002.50;;;13.04;63.89
60852;BME280;48553;50.766;2.900;2023-05-03T08:14:43;101999.44;;;13.14;63.90
60852;BME280;48553;50.766;2.900;2023-05-03T08:17:44;101997.03;;;13.22;63.92
60852;BME280;48553;50.766;2.900;2023-05-03T08:20:44;101991.03;;;13.37;63.87
60852;BME280;48553;50.766;2.900;2023-05-03T08:23:46;101999.63;;;13.53;63.64
60852;BME280;48553;50.766;2.900;2023-05-03T08:26:46;102001.25;;;13.63;63.51
60852;BME280;48553;50.766;2.900;2023-05-03T08:29:47;101991.03;;;13.72;63.43
60852;BME280;48553;50.766;2.900;2023-05-03T08:32:48;101993.59;;;13.86;63.08
60852;BME280;48553;50.766;2.900;2023-05-03T08:35:48;101998.56;;;14.01;62.63
60852;BME280;48553;50.766;2.900;2023-05-03T08:38:48;101998.03;;;14.16;62.33
60852;BME280;48553;50.766;2.900;2023-05-03T08:41:49;101995.03;;;14.39;62.09
60852;BME280;48553;50.766;2.900;2023-05-03T08:44:50;101994.00;;;14.52;61.66
60852;BME280;48553;50.766;2.900;2023-05-03T08:47:53;102000.81;;;14.64;61.42
60852;BME280;48553;50.766;2.900;2023-05-03T08:50:55;102002.72;;;14.72;61.41
60852;BME280;48553;50.766;2.900;2023-05-03T08:53:58;101991.75;;;14.84;60.81
60852;BME280;48553;50.766;2.900;2023-05-03T08:56:58;101997.97;;;15.02;60.48
60852;BME280;48553;50.766;2.900;2023-05-03T08:59:59;101999.31;;;15.17;60.42
60852;BME280;48553;50.766;2.900;2023-05-03T09:03:02;101994.63;;;15.38;59.46
60852;BME280;48553;50.766;2.900;2023-05-03T09:06:18;101992.59;;;15.48;58.99
60852;BME280;48553;50.766;2.900;2023-05-03T09:09:30;101986.03;;;15.52;59.39
60852;BME280;48553;50.766;2.900;2023-05-03T09:12:34;101989.53;;;15.61;59.37
60852;BME280;48553;50.766;2.900;2023-05-03T09:15:35;101987.22;;;15.84;58.46
60852;BME280;48553;50.766;2.900;2023-05-03T09:18:36;101984.28;;;16.02;57.43
60852;BME280;48553;50.766;2.900;2023-05-03T09:21:41;101985.44;;;16.13;57.30
60852;BME280;48553;50.766;2.900;2023-05-03T09:24:53;101978.75;;;16.14;57.63
60852;BME280;48553;50.766;2.900;2023-05-03T09:28:00;101975.22;;;16.26;57.38
60852;BME280;48553;50.766;2.900;2023-05-03T09:31:05;101980.28;;;16.36;57.08
60852;BME280;48553;50.766;2.900;2023-05-03T09:34:21;101989.59;;;16.68;55.65
60852;BME280;48553;50.766;2.900;2023-05-03T09:37:34;101981.88;;;16.62;56.11
60852;BME280;48553;50.766;2.900;2023-05-03T09:40:45;101971.94;;;16.73;55.74
60852;BME280;48553;50.766;2.900;2023-05-03T09:43:49;101971.41;;;16.80;56.16
60852;BME280;48553;50.766;2.900;2023-05-03T09:50:02;101980.16;;;16.94;56.19
60852;BME280;48553;50.766;2.900;2023-05-03T09:53:04;101985.66;;;17.06;56.23
60852;BME280;48553;50.766;2.900;2023-05-03T09:56:07;101968.31;;;17.22;55.96
60852;BME280;48553;50.766;2.900;2023-05-03T09:59:11;101971.59;;;17.40;55.42
60852;BME280;48553;50.766;2.900;2023-05-03T10:02:12;101972.66;;;17.35;55.59
60852;BME280;48553;50.766;2.900;2023-05-03T10:05:13;101961.06;;;17.45;55.76
60852;BME280;48553;50.766;2.900;2023-05-03T10:08:30;101968.31;;;17.50;55.60
60852;BME280;48553;50.766;2.900;2023-05-03T10:11:34;101967.09;;;17.63;55.39
60852;BME280;48553;50.766;2.900;2023-05-03T10:14:41;101964.91;;;17.85;54.32
60852;BME280;48553;50.766;2.900;2023-05-03T10:17:42;101965.94;;;17.92;55.01
60852;BME280;48553;50.766;2.900;2023-05-03T10:20:55;101951.28;;;18.08;54.22
60852;BME280;48553;50.766;2.900;2023-05-03T10:24:13;101951.50;;;18.19;54.56
60852;BME280;48553;50.766;2.900;2023-05-03T10:27:15;101942.84;;;18.20;54.66
60852;BME280;48553;50.766;2.900;2023-05-03T10:30:36;101948.72;;;18.34;55.25
60852;BME280;48553;50.766;2.900;2023-05-03T10:33:37;101938.00;;;18.49;54.32
60852;BME280;48553;50.766;2.900;2023-05-03T10:36:37;101929.53;;;18.61;53.72
60852;BME280;48553;50.766;2.900;2023-05-03T10:39:45;101933.56;;;18.64;54.19
60852;BME280;48553;50.766;2.900;2023-05-03T10:42:53;101925.47;;;18.74;54.11
60852;BME280;48553;50.766;2.900;2023-05-03T10:45:58;101914.47;;;18.97;52.77
60852;BME280;48553;50.766;2.900;2023-05-03T10:49:15;101901.81;;;19.00;52.77
60852;BME280;48553;50.766;2.900;2023-05-03T10:55:35;101901.75;;;19.16;52.97
60852;BME280;48553;50.766;2.900;2023-05-03T10:58:36;101908.84;;;19.33;52.10
60852;BME280;48553;50.766;2.900;2023-05-03T11:01:37;101903.72;;;19.35;52.48
60852;BME280;48553;50.766;2.900;2023-05-03T11:04:40;101893.88;;;19.41;52.32
60852;BME280;48553;50.766;2.900;2023-05-03T11:07:43;101880.19;;;19.52;52.30
60852;BME280;48553;50.766;2.900;2023-05-03T11:10:44;101880.00;;;19.64;52.08
60852;BME280;48553;50.766;2.900;2023-05-03T11:13:45;101879.78;;;19.73;51.46
60852;BME280;48553;50.766;2.900;2023-05-03T11:16:46;101868.75;;;19.76;51.81
60852;BME280;48553;50.766;2.900;2023-05-03T11:19:49;101860.94;;;19.86;51.57
60852;BME280;48553;50.766;2.900;2023-05-03T11:22:50;101857.09;;;19.94;51.33
60852;BME280;48553;50.766;2.900;2023-05-03T11:25:51;101851.16;;;19.95;51.73
60852;BME280;48553;50.766;2.900;2023-05-03T11:28:52;101847.41;;;20.11;50.91
60852;BME280;48553;50.766;2.900;2023-05-03T11:31:54;101842.28;;;20.13;51.07
60852;BME280;48553;50.766;2.900;2023-05-03T11:34:55;101843.69;;;20.26;49.94
60852;BME280;48553;50.766;2.900;2023-05-03T11:37:58;101837.69;;;20.24;50.59
60852;BME280;48553;50.766;2.900;2023-05-03T11:41:00;101837.78;;;20.31;50.06
60852;BME280;48553;50.766;2.900;2023-05-03T11:44:00;101827.16;;;20.40;50.07
60852;BME280;48553;50.766;2.900;2023-05-03T11:47:01;101824.56;;;20.55;49.51
60852;BME280;48553;50.766;2.900;2023-05-03T11:50:01;101835.09;;;20.65;49.58
60852;BME280;48553;50.766;2.900;2023-05-03T11:53:03;101832.28;;;20.65;49.42
60852;BME280;48553;50.766;2.900;2023-05-03T11:56:06;101820.47;;;20.75;48.68
60852;BME280;48553;50.766;2.900;2023-05-03T11:59:07;101822.94;;;20.80;48.29
60852;BME280;48553;50.766;2.900;2023-05-03T12:02:09;101817.16;;;20.96;47.96
60852;BME280;48553;50.766;2.900;2023-05-03T12:05:11;101813.97;;;20.98;48.63
60852;BME280;48553;50.766;2.900;2023-05-03T12:08:12;101806.00;;;21.00;49.24
60852;BME280;48553;50.766;2.900;2023-05-03T12:11:12;101805.66;;;21.05;48.92
60852;BME280;48553;50.766;2.900;2023-05-03T12:14:13;101803.72;;;21.09;49.38
60852;BME280;48553;50.766;2.900;2023-05-03T12:17:13;101804.16;;;21.11;49.56
60852;BME280;48553;50.766;2.900;2023-05-03T12:23:16;101800.25;;;21.19;49.62
60852;BME280;48553;50.766;2.900;2023-05-03T12:26:17;101799.53;;;21.30;48.14
60852;BME280;48553;50.766;2.900;2023-05-03T12:29:19;101792.81;;;21.34;48.36
60852;BME280;48553;50.766;2.900;2023-05-03T12:32:19;101797.22;;;21.35;49.08
60852;BME280;48553;50.766;2.900;2023-05-03T12:35:20;101789.66;;;21.36;49.11
60852;BME280;48553;50.766;2.900;2023-05-03T12:38:21;101780.91;;;21.37;49.13
60852;BME280;48553;50.766;2.900;2023-05-03T12:41:22;101774.22;;;21.45;48.78
60852;BME280;48553;50.766;2.900;2023-05-03T12:44:24;101769.53;;;21.57;48.40
60852;BME280;48553;50.766;2.900;2023-05-03T12:47:25;101775.47;;;21.52;48.62
60852;BME280;48553;50.766;2.900;2023-05-03T12:50:26;101760.31;;;21.53;48.91
60852;BME280;48553;50.766;2.900;2023-05-03T12:53:26;101756.75;;;21.52;48.88
60852;BME280;48553;50.766;2.900;2023-05-03T12:56:27;101754.38;;;21.54;48.44
60852;BME280;48553;50.766;2.900;2023-05-03T12:59:28;101744.44;;;21.60;47.47
60852;BME280;48553;50.766;2.900;2023-05-03T13:02:29;101744.13;;;21.69;48.41
60852;BME280;48553;50.766;2.900;2023-05-03T13:05:30;101739.34;;;21.69;48.65
60852;BME280;48553;50.766;2.900;2023-05-03T13:08:30;101746.91;;;21.69;48.39
60852;BME280;48553;50.766;2.900;2023-05-03T13:11:32;101739.34;;;21.73;47.91
60852;BME280;48553;50.766;2.900;2023-05-03T13:14:33;101736.59;;;21.77;47.73
60852;BME280;48553;50.766;2.900;2023-05-03T13:17:34;101724.59;;;21.73;48.50
60852;BME280;48553;50.766;2.900;2023-05-03T13:20:35;101720.22;;;21.75;48.22
60852;BME280;48553;50.766;2.900;2023-05-03T13:23:36;101721.00;;;21.72;48.47
60852;BME280;48553;50.766;2.900;2023-05-03T13:26:37;101709.47;;;21.77;48.74
60852;BME280;48553;50.766;2.900;2023-05-03T13:29:38;101701.91;;;21.78;48.60
60852;BME280;48553;50.766;2.900;2023-05-03T13:32:38;101705.03;;;21.65;49.21
60852;BME280;48553;50.766;2.900;2023-05-03T13:35:39;101698.19;;;21.59;49.53
60852;BME280;48553;50.766;2.900;2023-05-03T13:38:40;101692.63;;;21.59;49.65
60852;BME280;48553;50.766;2.900;2023-05-03T13:41:41;101697.75;;;21.50;49.52
60852;BME280;48553;50.766;2.900;2023-05-03T13:44:45;101697.75;;;21.50;49.57
60852;BME280;48553;50.766;2.900;2023-05-03T13:47:46;101684.22;;;21.52;49.83
60852;BME280;48553;50.766;2.900;2023-05-03T13:50:47;101681.00;;;21.50;49.29
60852;BME280;48553;50.766;2.900;2023-05-03T13:53:47;101685.75;;;21.42;50.17
60852;BME280;48553;50.766;2.900;2023-05-03T13:56:48;101683.34;;;21.41;50.16
60852;BME280;48553;50.766;2.900;2023-05-03T13:59:48;101673.72;;;21.38;49.75
60852;BME280;48553;50.766;2.900;2023-05-03T14:02:50;101675.72;;;21.38;48.97
60852;BME280;48553;50.766;2.900;2023-05-03T14:05:51;101667.72;;;21.36;49.59
60852;BME280;48553;50.766;2.900;2023-05-03T14:08:51;101650.59;;;21.34;49.24
60852;BME280;48553;50.766;2.900;2023-05-03T14:11:57;101656.97;;;21.35;48.70
60852;BME280;48553;50.766;2.900;2023-05-03T14:15:01;101653.38;;;21.31;48.83
60852;BME280;48553;50.766;2.900;2023-05-03T14:18:02;101652.56;;;21.34;49.12
60852;BME280;48553;50.766;2.900;2023-05-03T14:21:02;101637.44;;;21.31;48.85
60852;BME280;48553;50.766;2.900;2023-05-03T14:24:03;101632.25;;;21.33;48.92
60852;BME280;48553;50.766;2.900;2023-05-03T14:27:04;101635.81;;;21.26;49.53
60852;BME280;48553;50.766;2.900;2023-05-03T14:30:06;101635.00;;;21.26;49.28
60852;BME280;48553;50.766;2.900;2023-05-03T14:33:06;101632.19;;;21.22;48.49
60852;BME280;48553;50.766;2.900;2023-05-03T14:36:09;101627.84;;;21.32;47.89
60852;BME280;48553;50.766;2.900;2023-05-03T14:39:10;101635.38;;;21.24;49.40
60852;BME280;48553;50.766;2.900;2023-05-03T14:42:13;101623.03;;;21.22;48.55
60852;BME280;48553;50.766;2.900;2023-05-03T14:45:14;101621.41;;;21.17;49.32
60852;BME280;48553;50.766;2.900;2023-05-03T14:48:15;101614.56;;;21.08;49.47
60852;BME280;48553;50.766;2.900;2023-05-03T14:51:16;101620.56;;;21.13;48.44
60852;BME280;48553;50.766;2.900;2023-05-03T14:54:16;101609.47;;;21.20;48.10
60852;BME280;48553;50.766;2.900;2023-05-03T14:57:18;101613.41;;;21.12;48.60
60852;BME280;48553;50.766;2.900;2023-05-03T15:00:19;101615.75;;;21.06;48.71
60852;BME280;48553;50.766;2.900;2023-05-03T15:03:19;101606.16;;;21.04;48.42
60852;BME280;48553;50.766;2.900;2023-05-03T15:06:27;101602.97;;;21.02;48.55
60852;BME280;48553;50.766;2.900;2023-05-03T15:09:30;101597.31;;;20.91;49.37
60852;BME280;48553;50.766;2.900;2023-05-03T15:12:31;101601.72;;;20.92;48.01
60852;BME280;48553;50.766;2.900;2023-05-03T15:15:31;101599.28;;;20.91;48.27
60852;BME280;48553;50.766;2.900;2023-05-03T15:18:32;101602.41;;;20.82;49.28
60852;BME280;48553;50.766;2.900;2023-05-03T15:21:43;101597.19;;;20.77;48.50
60852;BME280;48553;50.766;2.900;2023-05-03T15:24:43;101587.22;;;20.72;48.98
60852;BME280;48553;50.766;2.900;2023-05-03T15:27:45;101591.56;;;20.70;48.41
60852;BME280;48553;50.766;2.900;2023-05-03T15:30:45;101582.41;;;20.69;48.49
60852;BME280;48553;50.766;2.900;2023-05-03T15:33:46;101592.34;;;20.70;46.84
60852;BME280;48553;50.766;2.900;2023-05-03T15:36:46;101587.94;;;20.65;47.65
60852;BME280;48553;50.766;2.900;2023-05-03T15:39:47;101579.53;;;20.58;48.55
60852;BME280;48553;50.766;2.900;2023-05-03T15:42:48;101575.81;;;20.47;48.64
60852;BME280;48553;50.766;2.900;2023-05-03T15:45:48;101578.19;;;20.45;48.58
60852;BME280;48553;50.766;2.900;2023-05-03T15:48:48;101570.63;;;20.45;47.56
60852;BME280;48553;50.766;2.900;2023-05-03T15:51:51;101566.19;;;20.37;48.43
60852;BME280;48553;50.766;2.900;2023-05-03T15:54:51;101571.28;;;20.28;48.70
60852;BME280;48553;50.766;2.900;2023-05-03T15:57:53;101557.34;;;20.28;48.41
60852;BME280;48553;50.766;2.900;2023-05-03T16:00:56;101566.38;;;20.18;48.60
60852;BME280;48553;50.766;2.900;2023-05-03T16:03:58;101567.53;;;20.13;48.60
60852;BME280;48553;50.766;2.900;2023-05-03T16:06:58;101558.34;;;20.09;48.76
60852;BME280;48553;50.766;2.900;2023-05-03T16:09:59;101555.91;;;20.04;48.90